Maersk Dominica — A8IY4 — position and weather

sailwx.info

Track history (hours):
 
Tides and Currents Weather Stations Pressure Air Temp Water Temp Dewpoint Dewpoint Depression Visibility Wind Speed Wind Dir Waves Ship Positions

Maersk Dominica

Last reported at 2017-Oct-16 22:35 UTC. Time now 2017-Oct-17 01:09 UTC.
Position N 50°15' W 001°24'.

Length 281 m; beam 32.2 m; draft 12.5 m.

Type: Ship (hazmat cat A). MMSI: 636016437.

Date/timePositionNaut miles runAvg speedWind from/ knotsBaromVisibWave heightAir tempDewpointWater temp
2017-Oct-16 22:35N 50°15' W 001°24'3614.7
2017-Oct-16 20:06N 50°24' W 000°29'113.4
2017-Oct-16 20:00N 50°25' W 000°27'713.2
2017-Oct-16 19:30N 50°27' W 000°17'713.1
2017-Oct-16 19:00N 50°28' W 000°07'612.9
2017-Oct-16 18:30N 50°30' E 000°03'612.9
2017-Oct-16 18:00N 50°32' E 000°12'713.2
2017-Oct-16 17:30N 50°33' E 000°22'713.8
2017-Oct-16 17:01N 50°35' E 000°33'714.2
2017-Oct-16 16:31N 50°38' E 000°42'815.0
2017-Oct-16 16:01N 50°43' E 000°52'815.6
2017-Oct-16 15:31N 50°49' E 001°01'815.8
2017-Oct-16 15:01N 50°54' E 001°10'816.0
2017-Oct-16 14:31N 50°59' E 001°19'1514.8
2017-Oct-16 13:31N 51°09' E 001°37'714.1
2017-Oct-16 13:01N 51°14' E 001°45'713.8
2017-Oct-16 12:30N 51°20' E 001°51'713.7
2017-Oct-16 12:00N 51°26' E 001°56'713.8
2017-Oct-16 11:30N 51°31' E 002°03'713.8
2017-Oct-16 11:00N 51°36' E 002°10'713.5
2017-Oct-16 10:30N 51°41' E 002°18'713.7
2017-Oct-16 10:00N 51°46' E 002°25'714.3
2017-Oct-16 09:30N 51°51' E 002°33'914.9
2017-Oct-16 08:54N 51°58' E 002°44'615.1
2017-Oct-16 08:28N 52°01' E 002°52'715.1
2017-Oct-16 07:59N 52°02' E 003°04'715.5
2017-Oct-16 07:30N 52°02' E 003°16'816.0
2017-Oct-16 07:00N 52°03' E 003°29'816.1
2017-Oct-16 06:30N 52°03' E 003°42'714.3
2017-Oct-16 06:00N 52°02' E 003°54'612.9
2017-Oct-16 05:30N 51°59' E 004°03'2 3.6
2017-Oct-16 05:00N 51°58' E 004°04'0 0.0
2017-Oct-16 04:30N 51°58' E 004°04'0 0.0
2017-Oct-16 04:00N 51°58' E 004°04'0 0.0
2017-Oct-16 03:30N 51°58' E 004°04'0 0.0
2017-Oct-16 03:00N 51°58' E 004°04'0 0.0
2017-Oct-16 02:30N 51°58' E 004°04'0 0.0
2017-Oct-16 02:00N 51°58' E 004°04'0 0.0
2017-Oct-16 01:30N 51°58' E 004°04'0 0.0
2017-Oct-16 01:00N 51°58' E 004°04'0 0.0
2017-Oct-16 00:30N 51°58' E 004°04'0 0.0
2017-Oct-16 00:00N 51°58' E 004°04'0 0.0
2017-Oct-15 23:27N 51°58' E 004°04'0 0.0
2017-Oct-15 23:00N 51°58' E 004°04'0 0.0
2017-Oct-15 22:30N 51°58' E 004°04'0 0.0
2017-Oct-15 22:00N 51°58' E 004°04'0 0.0
2017-Oct-15 21:30N 51°58' E 004°04'0 0.0
2017-Oct-15 21:00N 51°58' E 004°04'0 0.0
2017-Oct-15 20:30N 51°58' E 004°04'0 0.0
2017-Oct-15 20:00N 51°58' E 004°04'0 0.0
2017-Oct-15 19:30N 51°58' E 004°04'0 0.0
2017-Oct-15 19:00N 51°58' E 004°04'0 0.0
2017-Oct-15 18:30N 51°58' E 004°04'0 0.0
2017-Oct-15 18:00N 51°58' E 004°04'0 0.0
2017-Oct-15 17:30N 51°58' E 004°04'0 0.0
2017-Oct-15 17:00N 51°58' E 004°04'0 0.0
2017-Oct-15 16:30N 51°58' E 004°04'0 0.0
2017-Oct-15 16:00N 51°58' E 004°04'0 0.0
2017-Oct-15 15:30N 51°58' E 004°04'0 0.0
2017-Oct-15 15:00N 51°58' E 004°04'1 1.3
2017-Oct-15 14:00N 51°59' E 004°05'4 8.2
2017-Oct-15 13:31N 52°00' E 003°59'612.4
2017-Oct-15 13:00N 52°02' E 003°49'5 9.0
2017-Oct-15 12:30N 52°06' E 003°46'611.3
2017-Oct-15 12:00N 52°11' E 003°43'1 1.7
2017-Oct-15 11:28N 52°12' E 003°42'0 0.0
2017-Oct-15 10:58N 52°12' E 003°42'0 0.0
2017-Oct-15 10:28N 52°12' E 003°42'0 0.0
2017-Oct-15 09:46N 52°12' E 003°42'0 0.0
2017-Oct-15 09:22N 52°12' E 003°42'0 0.1
2017-Oct-15 08:58N 52°12' E 003°42'0 0.1
2017-Oct-15 08:16N 52°12' E 003°42'0 0.0
2017-Oct-15 07:55N 52°12' E 003°42'0 0.1
2017-Oct-15 07:25N 52°12' E 003°42'0 0.1
2017-Oct-15 06:58N 52°12' E 003°42'0 0.2
2017-Oct-15 06:28N 52°12' E 003°42'0 0.1
2017-Oct-15 05:58N 52°12' E 003°42'0 0.1
2017-Oct-15 05:25N 52°12' E 003°42'0 0.0
2017-Oct-15 04:55N 52°12' E 003°42'0 0.0
2017-Oct-15 04:25N 52°12' E 003°42'0 0.0
2017-Oct-15 03:58N 52°12' E 003°42'0 0.1
2017-Oct-15 03:28N 52°12' E 003°42'0 0.1
2017-Oct-15 02:55N 52°12' E 003°42'0 0.2
2017-Oct-15 02:28N 52°12' E 003°42'0 0.1
2017-Oct-15 01:58N 52°12' E 003°42'0 0.1
2017-Oct-15 01:25N 52°12' E 003°42'0 0.1
2017-Oct-15 00:58N 52°12' E 003°42'0 0.1
2017-Oct-15 00:25N 52°12' E 003°42'0 0.0
2017-Oct-14 23:58N 52°12' E 003°42'0 0.0
2017-Oct-14 23:25N 52°12' E 003°42'0 0.0
2017-Oct-14 22:58N 52°12' E 003°42'0 0.0
2017-Oct-14 21:55N 52°12' E 003°42'0 0.0
2017-Oct-14 21:25N 52°12' E 003°42'0 0.0
2017-Oct-14 20:58N 52°12' E 003°42'0 0.0
2017-Oct-14 20:28N 52°12' E 003°42'0 0.0
2017-Oct-14 19:58N 52°12' E 003°42'0 0.0
2017-Oct-14 19:25N 52°12' E 003°42'0 0.1
2017-Oct-14 18:58N 52°12' E 003°42'0 0.2
2017-Oct-14 18:28N 52°12' E 003°42'0 0.1
2017-Oct-14 17:58N 52°12' E 003°42'0 0.0
2017-Oct-14 17:25N 52°12' E 003°42'0 0.0
2017-Oct-14 16:58N 52°12' E 003°42'0 0.0
2017-Oct-14 16:25N 52°12' E 003°42'0 0.2
2017-Oct-14 15:55N 52°12' E 003°42'0 0.1
2017-Oct-14 15:25N 52°12' E 003°42'0 0.1
2017-Oct-14 14:55N 52°12' E 003°42'0 0.0
2017-Oct-14 14:28N 52°12' E 003°42'0 0.5
2017-Oct-14 14:00N 52°12' E 003°43'3 6.3
2017-Oct-14 13:28N 52°14' E 003°46'510.2
2017-Oct-14 12:59N 52°19' E 003°48'5 9.9
2017-Oct-14 12:30N 52°24' E 003°49'5 9.6
2017-Oct-14 11:57N 52°29' E 003°51'5 9.4
2017-Oct-14 11:28N 52°34' E 003°52'5 9.2
2017-Oct-14 10:58N 52°38' E 003°54'5 9.0
2017-Oct-14 10:28N 52°43' E 003°56'4 8.9
2017-Oct-14 10:00N 52°47' E 003°57'4 8.8
2017-Oct-14 09:30N 52°51' E 003°58'5 9.0
2017-Oct-14 08:57N 52°56' E 004°00'9 9.2
2017-Oct-14 07:57N 53°03' E 004°10'610.0
2017-Oct-14 07:19N 53°07' E 004°18'310.3
2017-Oct-14 06:59N 53°09' E 004°23'510.3
2017-Oct-14 06:31N 53°13' E 004°26'610.7
2017-Oct-14 06:00N 53°19' E 004°29'510.5
2017-Oct-14 05:30N 53°23' E 004°33'510.3
2017-Oct-14 05:01N 53°28' E 004°37'20 9.8
2017-Oct-14 02:56N 53°36' E 005°08'104 9.0
2017-Oct-13 15:22N 53°51' E 008°02'616.4
2017-Oct-13 15:00N 53°47' E 008°10'815.8
2017-Oct-13 14:30N 53°42' E 008°20'815.2
2017-Oct-13 14:00N 53°37' E 008°30'3 5.7
2017-Oct-13 13:31N 53°34' E 008°32'0 0.0
2017-Oct-13 12:59N 53°34' E 008°32'0 0.0
2017-Oct-13 12:29N 53°34' E 008°32'0 0.0
2017-Oct-13 11:59N 53°34' E 008°32'0 0.0
2017-Oct-13 11:29N 53°34' E 008°32'0 0.0
2017-Oct-13 10:59N 53°34' E 008°32'0 0.0
2017-Oct-13 10:29N 53°34' E 008°32'0 0.0
2017-Oct-13 09:59N 53°34' E 008°32'0 0.0
2017-Oct-13 09:29N 53°34' E 008°32'0 0.0
2017-Oct-13 08:59N 53°34' E 008°32'0 0.0
2017-Oct-13 08:29N 53°34' E 008°32'0 0.0
2017-Oct-13 07:59N 53°34' E 008°32'0 0.0
2017-Oct-13 07:29N 53°34' E 008°32'0 0.0
2017-Oct-13 06:59N 53°34' E 008°32'0 0.0
2017-Oct-13 06:29N 53°34' E 008°32'0 0.0
2017-Oct-13 05:59N 53°34' E 008°32'0 0.0
2017-Oct-13 05:29N 53°34' E 008°32'0 0.0
2017-Oct-13 04:59N 53°34' E 008°32'0 0.0
2017-Oct-13 04:29N 53°34' E 008°32'0 0.0
2017-Oct-13 03:59N 53°34' E 008°32'0 0.0
2017-Oct-13 03:29N 53°34' E 008°32'0 0.0
2017-Oct-13 02:59N 53°34' E 008°32'0 0.0
2017-Oct-13 02:29N 53°34' E 008°32'0 0.0
2017-Oct-13 01:59N 53°34' E 008°32'0 0.0
2017-Oct-13 01:29N 53°34' E 008°32'0 0.0
2017-Oct-13 00:59N 53°34' E 008°32'0 0.0
2017-Oct-13 00:29N 53°34' E 008°32'0 0.0
2017-Oct-12 23:59N 53°34' E 008°32'0 0.0
2017-Oct-12 23:29N 53°34' E 008°32'0 0.0
2017-Oct-12 22:59N 53°34' E 008°32'0 0.0
2017-Oct-12 22:29N 53°34' E 008°32'0 0.0
2017-Oct-12 21:59N 53°34' E 008°32'0 0.0
2017-Oct-12 21:29N 53°34' E 008°32'0 0.0
2017-Oct-12 20:59N 53°34' E 008°32'0 0.0
2017-Oct-12 20:29N 53°34' E 008°32'0 0.0
2017-Oct-12 19:59N 53°34' E 008°32'0 0.0
2017-Oct-12 19:29N 53°34' E 008°32'0 0.0
2017-Oct-12 18:59N 53°34' E 008°32'0 0.0
2017-Oct-12 18:29N 53°34' E 008°32'0 0.0
2017-Oct-12 17:56N 53°34' E 008°32'0 0.0
2017-Oct-12 17:29N 53°34' E 008°32'0 0.0
2017-Oct-12 16:59N 53°34' E 008°32'0 0.1
2017-Oct-12 16:30N 53°34' E 008°32'4 7.3
2017-Oct-12 16:00N 53°37' E 008°28'816.5
2017-Oct-12 15:30N 53°43' E 008°18'918.1
2017-Oct-12 15:00N 53°49' E 008°07'8817.4
2017-Oct-12 09:56N 53°37' E 005°40'920.6
2017-Oct-12 09:30N 53°34' E 005°26'1020.7
2017-Oct-12 09:00N 53°31' E 005°09'1020.7
2017-Oct-12 08:30N 53°27' E 004°53'1019.4
2017-Oct-12 08:00N 53°20' E 004°42'1019.9
2017-Oct-12 07:30N 53°11' E 004°33'1020.0
2017-Oct-12 07:00N 53°03' E 004°24'1019.7
2017-Oct-12 06:30N 52°55' E 004°16'1019.5
2017-Oct-12 06:00N 52°46' E 004°08'1019.6
2017-Oct-12 05:30N 52°38' E 003°58'1019.3
2017-Oct-12 05:00N 52°31' E 003°47'1119.1
2017-Oct-12 04:25N 52°23' E 003°35'818.7
2017-Oct-12 03:59N 52°15' E 003°30'1418.0
2017-Oct-12 03:11N 52°01' E 003°25'414.4
2017-Oct-12 02:53N 51°57' E 003°24'718.2
2017-Oct-12 02:31N 51°51' E 003°19'815.9
2017-Oct-12 02:00N 51°43' E 003°16'612.7
2017-Oct-12 01:30N 51°38' E 003°11'917.5
2017-Oct-12 01:00N 51°30' E 003°04'611.3
2017-Oct-12 00:30N 51°24' E 003°05'1019.2
2017-Oct-12 00:00N 51°24' E 003°20'918.4
2017-Oct-11 23:30N 51°25' E 003°35'3 6.6
2017-Oct-11 23:00N 51°27' E 003°40'815.5
2017-Oct-11 22:30N 51°21' E 003°48'715.0
2017-Oct-11 22:00N 51°25' E 003°58'612.2
2017-Oct-11 21:30N 51°22' E 004°06'611.8
2017-Oct-11 21:00N 51°21' E 004°16'4 7.6
2017-Oct-11 20:31N 51°17' E 004°15'0 0.1
2017-Oct-11 19:55N 51°17' E 004°15'0 0.0
2017-Oct-11 19:28N 51°17' E 004°15'0 0.0
2017-Oct-11 18:58N 51°17' E 004°15'0 0.0
2017-Oct-11 18:28N 51°17' E 004°15'0 0.0
2017-Oct-11 17:58N 51°17' E 004°15'0 0.0
2017-Oct-11 17:28N 51°17' E 004°15'0 0.0
2017-Oct-11 16:58N 51°17' E 004°15'0 0.0
2017-Oct-10 23:58N 51°17' E 004°15'0 0.0
2017-Oct-10 23:28N 51°17' E 004°15'0 0.0
2017-Oct-10 22:58N 51°17' E 004°15'0 0.0
2017-Oct-10 22:28N 51°17' E 004°15'0 0.0
2017-Oct-10 21:58N 51°17' E 004°15'0 0.0
2017-Oct-10 21:25N 51°17' E 004°15'0 0.0
2017-Oct-10 20:58N 51°17' E 004°15'0 0.0
2017-Oct-10 20:28N 51°17' E 004°15'0 0.0
2017-Oct-10 19:58N 51°17' E 004°15'0 0.0
2017-Oct-10 19:28N 51°17' E 004°15'0 0.7
2017-Oct-10 19:00N 51°18' E 004°16'2 4.9
2017-Oct-10 18:30N 51°20' E 004°16'510.1
2017-Oct-10 18:00N 51°24' E 004°11'611.9
2017-Oct-10 17:31N 51°24' E 004°02'4 8.9
2017-Oct-10 17:01N 51°22' E 003°56'815.4
2017-Oct-10 16:31N 51°23' E 003°43'510.1
2017-Oct-10 16:00N 51°26' E 003°37'4 8.3
2017-Oct-10 15:31N 51°25' E 003°30'1020.6
2017-Oct-10 15:01N 51°25' E 003°14'8 8.3
2017-Oct-10 14:00N 51°31' E 003°05'917.8
2017-Oct-10 13:30N 51°39' E 003°12'815.4
2017-Oct-10 13:00N 51°45' E 003°18'3 0.8
2017-Oct-10 09:16N 51°48' E 003°21'0 0.1
2017-Oct-10 08:31N 51°48' E 003°21'0 0.0
2017-Oct-10 08:29N 51°48' E 003°21'0 0.0
2017-Oct-10 07:52N 51°48' E 003°21'0 0.0
2017-Oct-10 07:19N 51°48' E 003°21'0 0.0
2017-Oct-10 06:34N 51°48' E 003°21'0 0.0
2017-Oct-10 06:29N 51°48' E 003°21'0 0.0
2017-Oct-10 05:40N 51°48' E 003°21'0 0.0
2017-Oct-10 05:28N 51°48' E 003°21'0 0.0
2017-Oct-10 04:58N 51°48' E 003°21'0 0.0
2017-Oct-10 04:19N 51°48' E 003°21'0 0.1
2017-Oct-10 03:55N 51°48' E 003°21'0 0.0
2017-Oct-10 03:28N 51°48' E 003°21'0 0.1
2017-Oct-10 02:58N 51°48' E 003°21'0 0.1
2017-Oct-10 02:28N 51°47' E 003°21'1 3.0
2017-Oct-10 01:59N 51°47' E 003°18'4 9.2
2017-Oct-10 01:30N 51°52' E 003°18'612.4
2017-Oct-10 01:00N 51°58' E 003°20'611.4
2017-Oct-10 00:29N 52°02' E 003°26'713.4
2017-Oct-09 23:59N 52°03' E 003°37'613.6
2017-Oct-09 23:30N 52°02' E 003°47'5 9.0
2017-Oct-09 23:00N 52°02' E 003°54'612.2
2017-Oct-09 22:30N 51°59' E 004°04'2 3.2
2017-Oct-09 22:01N 51°58' E 004°04'0 0.9
2017-Oct-09 21:29N 51°58' E 004°04'0 0.0
2017-Oct-09 20:59N 51°58' E 004°04'0 0.0
2017-Oct-09 20:29N 51°58' E 004°04'0 0.0
2017-Oct-09 19:59N 51°58' E 004°04'0 0.0
2017-Oct-09 19:29N 51°58' E 004°04'0 0.0
2017-Oct-09 18:59N 51°58' E 004°04'0 0.0
2017-Oct-09 18:29N 51°58' E 004°04'0 0.0
2017-Oct-09 17:59N 51°58' E 004°04'0 0.0
2017-Oct-09 17:29N 51°58' E 004°04'0 0.0
2017-Oct-09 16:59N 51°58' E 004°04'0 0.0
2017-Oct-09 16:29N 51°58' E 004°04'0 0.0
2017-Oct-09 15:59N 51°58' E 004°04'0 0.0
2017-Oct-09 15:29N 51°58' E 004°04'0 0.0
2017-Oct-09 14:59N 51°58' E 004°04'0 0.0
2017-Oct-09 14:29N 51°58' E 004°04'0 0.0
2017-Oct-09 13:59N 51°58' E 004°04'0 0.0
2017-Oct-09 13:29N 51°58' E 004°04'0 0.0
2017-Oct-09 12:59N 51°58' E 004°04'0 0.0
2017-Oct-09 12:29N 51°58' E 004°04'0 0.0
2017-Oct-09 11:59N 51°58' E 004°04'0 0.0
2017-Oct-09 11:29N 51°58' E 004°04'0 0.0
2017-Oct-09 10:59N 51°58' E 004°04'0 0.0
2017-Oct-09 10:29N 51°58' E 004°04'0 0.0
2017-Oct-09 09:59N 51°58' E 004°04'0 0.0
2017-Oct-09 09:29N 51°58' E 004°04'0 0.0
2017-Oct-09 08:56N 51°58' E 004°04'0 0.0
2017-Oct-09 08:29N 51°58' E 004°04'1 1.1
2017-Oct-09 08:00N 51°58' E 004°04'3 5.1
2017-Oct-09 07:30N 51°60' E 004°02'612.5
2017-Oct-09 07:00N 52°00' E 003°51'3 6.1
2017-Oct-09 06:30N 51°59' E 003°47'611.3
2017-Oct-09 05:59N 51°57' E 003°38'713.9
2017-Oct-09 05:30N 51°55' E 003°27'2 1.6
2017-Oct-09 04:30N 51°54' E 003°26'0 0.0
2017-Oct-09 03:42N 51°54' E 003°26'0 0.0
2017-Oct-09 03:30N 51°54' E 003°26'0 0.1
2017-Oct-09 00:33N 51°54' E 003°26'0 0.0
2017-Oct-09 00:15N 51°54' E 003°25'0 0.0
2017-Oct-09 00:00N 51°54' E 003°25'0 0.0
2017-Oct-08 23:27N 51°54' E 003°25'0 0.0
2017-Oct-08 23:00N 51°54' E 003°25'0 0.0
2017-Oct-08 22:27N 51°54' E 003°25'0 0.0
2017-Oct-08 21:51N 51°54' E 003°25'0 0.0
2017-Oct-08 21:24N 51°54' E 003°25'0 0.1
2017-Oct-08 19:21N 51°54' E 003°26'0 0.0
2017-Oct-07 07:00N 51°54' E 003°26'0 0.0
2017-Oct-07 06:18N 51°54' E 003°26'1 1.7
2017-Oct-07 05:59N 51°54' E 003°25'3110.3
2017-Oct-07 03:01N 51°52' E 002°36'311.0
2017-Oct-07 02:47N 51°52' E 002°32'911.4
2017-Oct-07 01:59N 51°53' E 002°17'611.8
2017-Oct-07 01:31N 51°52' E 002°08'612.0
2017-Oct-07 01:00N 51°50' E 001°59'611.2
2017-Oct-07 00:31N 51°48' E 001°50'510.6
2017-Oct-07 00:00N 51°50' E 001°42'4 8.5
2017-Oct-06 23:30N 51°52' E 001°36'611.1
2017-Oct-06 23:01N 51°56' E 001°31'  
Track history (hours):
 
Tides and Currents Weather Stations Pressure Air Temp Water Temp Dewpoint Dewpoint Depression Visibility Wind Speed Wind Dir Waves Ship Positions

Maersk Dominica

Last reported at 2017-Oct-16 22:35 UTC. Time now 2017-Oct-17 01:09 UTC.
Position N 50°15' W 001°24'.

Length 281 m; beam 32.2 m; draft 12.5 m.

Type: Ship (hazmat cat A). MMSI: 636016437.

Date/timePositionNaut miles runAvg speedWind from/ knotsBaromVisibWave heightAir tempDewpointWater temp
2017-Oct-16 22:35N 50°15' W 001°24'3614.7
2017-Oct-16 20:06N 50°24' W 000°29'113.4
2017-Oct-16 20:00N 50°25' W 000°27'713.2
2017-Oct-16 19:30N 50°27' W 000°17'713.1
2017-Oct-16 19:00N 50°28' W 000°07'612.9
2017-Oct-16 18:30N 50°30' E 000°03'612.9
2017-Oct-16 18:00N 50°32' E 000°12'713.2
2017-Oct-16 17:30N 50°33' E 000°22'713.8
2017-Oct-16 17:01N 50°35' E 000°33'714.2
2017-Oct-16 16:31N 50°38' E 000°42'815.0
2017-Oct-16 16:01N 50°43' E 000°52'815.6
2017-Oct-16 15:31N 50°49' E 001°01'815.8
2017-Oct-16 15:01N 50°54' E 001°10'816.0
2017-Oct-16 14:31N 50°59' E 001°19'1514.8
2017-Oct-16 13:31N 51°09' E 001°37'714.1
2017-Oct-16 13:01N 51°14' E 001°45'713.8
2017-Oct-16 12:30N 51°20' E 001°51'713.7
2017-Oct-16 12:00N 51°26' E 001°56'713.8
2017-Oct-16 11:30N 51°31' E 002°03'713.8
2017-Oct-16 11:00N 51°36' E 002°10'713.5
2017-Oct-16 10:30N 51°41' E 002°18'713.7
2017-Oct-16 10:00N 51°46' E 002°25'714.3
2017-Oct-16 09:30N 51°51' E 002°33'914.9
2017-Oct-16 08:54N 51°58' E 002°44'615.1
2017-Oct-16 08:28N 52°01' E 002°52'715.1
2017-Oct-16 07:59N 52°02' E 003°04'715.5
2017-Oct-16 07:30N 52°02' E 003°16'816.0
2017-Oct-16 07:00N 52°03' E 003°29'816.1
2017-Oct-16 06:30N 52°03' E 003°42'714.3
2017-Oct-16 06:00N 52°02' E 003°54'612.9
2017-Oct-16 05:30N 51°59' E 004°03'2 3.6
2017-Oct-16 05:00N 51°58' E 004°04'0 0.0
2017-Oct-16 04:30N 51°58' E 004°04'0 0.0
2017-Oct-16 04:00N 51°58' E 004°04'0 0.0
2017-Oct-16 03:30N 51°58' E 004°04'0 0.0
2017-Oct-16 03:00N 51°58' E 004°04'0 0.0
2017-Oct-16 02:30N 51°58' E 004°04'0 0.0
2017-Oct-16 02:00N 51°58' E 004°04'0 0.0
2017-Oct-16 01:30N 51°58' E 004°04'0 0.0
2017-Oct-16 01:00N 51°58' E 004°04'0 0.0
2017-Oct-16 00:30N 51°58' E 004°04'0 0.0
2017-Oct-16 00:00N 51°58' E 004°04'0 0.0
2017-Oct-15 23:27N 51°58' E 004°04'0 0.0
2017-Oct-15 23:00N 51°58' E 004°04'0 0.0
2017-Oct-15 22:30N 51°58' E 004°04'0 0.0
2017-Oct-15 22:00N 51°58' E 004°04'0 0.0
2017-Oct-15 21:30N 51°58' E 004°04'0 0.0
2017-Oct-15 21:00N 51°58' E 004°04'0 0.0
2017-Oct-15 20:30N 51°58' E 004°04'0 0.0
2017-Oct-15 20:00N 51°58' E 004°04'0 0.0
2017-Oct-15 19:30N 51°58' E 004°04'0 0.0
2017-Oct-15 19:00N 51°58' E 004°04'0 0.0
2017-Oct-15 18:30N 51°58' E 004°04'0 0.0
2017-Oct-15 18:00N 51°58' E 004°04'0 0.0
2017-Oct-15 17:30N 51°58' E 004°04'0 0.0
2017-Oct-15 17:00N 51°58' E 004°04'0 0.0
2017-Oct-15 16:30N 51°58' E 004°04'0 0.0
2017-Oct-15 16:00N 51°58' E 004°04'0 0.0
2017-Oct-15 15:30N 51°58' E 004°04'0 0.0
2017-Oct-15 15:00N 51°58' E 004°04'1 1.3
2017-Oct-15 14:00N 51°59' E 004°05'4 8.2
2017-Oct-15 13:31N 52°00' E 003°59'612.4
2017-Oct-15 13:00N 52°02' E 003°49'5 9.0
2017-Oct-15 12:30N 52°06' E 003°46'611.3
2017-Oct-15 12:00N 52°11' E 003°43'1 1.7
2017-Oct-15 11:28N 52°12' E 003°42'0 0.0
2017-Oct-15 10:58N 52°12' E 003°42'0 0.0
2017-Oct-15 10:28N 52°12' E 003°42'0 0.0
2017-Oct-15 09:46N 52°12' E 003°42'0 0.0
2017-Oct-15 09:22N 52°12' E 003°42'0 0.1
2017-Oct-15 08:58N 52°12' E 003°42'0 0.1
2017-Oct-15 08:16N 52°12' E 003°42'0 0.0
2017-Oct-15 07:55N 52°12' E 003°42'0 0.1
2017-Oct-15 07:25N 52°12' E 003°42'0 0.1
2017-Oct-15 06:58N 52°12' E 003°42'0 0.2
2017-Oct-15 06:28N 52°12' E 003°42'0 0.1
2017-Oct-15 05:58N 52°12' E 003°42'0 0.1
2017-Oct-15 05:25N 52°12' E 003°42'0 0.0
2017-Oct-15 04:55N 52°12' E 003°42'0 0.0
2017-Oct-15 04:25N 52°12' E 003°42'0 0.0
2017-Oct-15 03:58N 52°12' E 003°42'0 0.1
2017-Oct-15 03:28N 52°12' E 003°42'0 0.1
2017-Oct-15 02:55N 52°12' E 003°42'0 0.2
2017-Oct-15 02:28N 52°12' E 003°42'0 0.1
2017-Oct-15 01:58N 52°12' E 003°42'0 0.1
2017-Oct-15 01:25N 52°12' E 003°42'0 0.1
2017-Oct-15 00:58N 52°12' E 003°42'0 0.1
2017-Oct-15 00:25N 52°12' E 003°42'0 0.0
2017-Oct-14 23:58N 52°12' E 003°42'0 0.0
2017-Oct-14 23:25N 52°12' E 003°42'0 0.0
2017-Oct-14 22:58N 52°12' E 003°42'0 0.0
2017-Oct-14 21:55N 52°12' E 003°42'0 0.0
2017-Oct-14 21:25N 52°12' E 003°42'0 0.0
2017-Oct-14 20:58N 52°12' E 003°42'0 0.0
2017-Oct-14 20:28N 52°12' E 003°42'0 0.0
2017-Oct-14 19:58N 52°12' E 003°42'0 0.0
2017-Oct-14 19:25N 52°12' E 003°42'0 0.1
2017-Oct-14 18:58N 52°12' E 003°42'0 0.2
2017-Oct-14 18:28N 52°12' E 003°42'0 0.1
2017-Oct-14 17:58N 52°12' E 003°42'0 0.0
2017-Oct-14 17:25N 52°12' E 003°42'0 0.0
2017-Oct-14 16:58N 52°12' E 003°42'0 0.0
2017-Oct-14 16:25N 52°12' E 003°42'0 0.2
2017-Oct-14 15:55N 52°12' E 003°42'0 0.1
2017-Oct-14 15:25N 52°12' E 003°42'0 0.1
2017-Oct-14 14:55N 52°12' E 003°42'0 0.0
2017-Oct-14 14:28N 52°12' E 003°42'0 0.5
2017-Oct-14 14:00N 52°12' E 003°43'3 6.3
2017-Oct-14 13:28N 52°14' E 003°46'510.2
2017-Oct-14 12:59N 52°19' E 003°48'5 9.9
2017-Oct-14 12:30N 52°24' E 003°49'5 9.6
2017-Oct-14 11:57N 52°29' E 003°51'5 9.4
2017-Oct-14 11:28N 52°34' E 003°52'5 9.2
2017-Oct-14 10:58N 52°38' E 003°54'5 9.0
2017-Oct-14 10:28N 52°43' E 003°56'4 8.9
2017-Oct-14 10:00N 52°47' E 003°57'4 8.8
2017-Oct-14 09:30N 52°51' E 003°58'5 9.0
2017-Oct-14 08:57N 52°56' E 004°00'9 9.2
2017-Oct-14 07:57N 53°03' E 004°10'610.0
2017-Oct-14 07:19N 53°07' E 004°18'310.3
2017-Oct-14 06:59N 53°09' E 004°23'510.3
2017-Oct-14 06:31N 53°13' E 004°26'610.7
2017-Oct-14 06:00N 53°19' E 004°29'510.5
2017-Oct-14 05:30N 53°23' E 004°33'510.3
2017-Oct-14 05:01N 53°28' E 004°37'20 9.8
2017-Oct-14 02:56N 53°36' E 005°08'104 9.0
2017-Oct-13 15:22N 53°51' E 008°02'616.4
2017-Oct-13 15:00N 53°47' E 008°10'815.8
2017-Oct-13 14:30N 53°42' E 008°20'815.2
2017-Oct-13 14:00N 53°37' E 008°30'3 5.7
2017-Oct-13 13:31N 53°34' E 008°32'0 0.0
2017-Oct-13 12:59N 53°34' E 008°32'0 0.0
2017-Oct-13 12:29N 53°34' E 008°32'0 0.0
2017-Oct-13 11:59N 53°34' E 008°32'0 0.0
2017-Oct-13 11:29N 53°34' E 008°32'0 0.0
2017-Oct-13 10:59N 53°34' E 008°32'0 0.0
2017-Oct-13 10:29N 53°34' E 008°32'0 0.0
2017-Oct-13 09:59N 53°34' E 008°32'0 0.0
2017-Oct-13 09:29N 53°34' E 008°32'0 0.0
2017-Oct-13 08:59N 53°34' E 008°32'0 0.0
2017-Oct-13 08:29N 53°34' E 008°32'0 0.0
2017-Oct-13 07:59N 53°34' E 008°32'0 0.0
2017-Oct-13 07:29N 53°34' E 008°32'0 0.0
2017-Oct-13 06:59N 53°34' E 008°32'0 0.0
2017-Oct-13 06:29N 53°34' E 008°32'0 0.0
2017-Oct-13 05:59N 53°34' E 008°32'0 0.0
2017-Oct-13 05:29N 53°34' E 008°32'0 0.0
2017-Oct-13 04:59N 53°34' E 008°32'0 0.0
2017-Oct-13 04:29N 53°34' E 008°32'0 0.0
2017-Oct-13 03:59N 53°34' E 008°32'0 0.0
2017-Oct-13 03:29N 53°34' E 008°32'0 0.0
2017-Oct-13 02:59N 53°34' E 008°32'0 0.0
2017-Oct-13 02:29N 53°34' E 008°32'0 0.0
2017-Oct-13 01:59N 53°34' E 008°32'0 0.0
2017-Oct-13 01:29N 53°34' E 008°32'0 0.0
2017-Oct-13 00:59N 53°34' E 008°32'0 0.0
2017-Oct-13 00:29N 53°34' E 008°32'0 0.0
2017-Oct-12 23:59N 53°34' E 008°32'0 0.0
2017-Oct-12 23:29N 53°34' E 008°32'0 0.0
2017-Oct-12 22:59N 53°34' E 008°32'0 0.0
2017-Oct-12 22:29N 53°34' E 008°32'0 0.0
2017-Oct-12 21:59N 53°34' E 008°32'0 0.0
2017-Oct-12 21:29N 53°34' E 008°32'0 0.0
2017-Oct-12 20:59N 53°34' E 008°32'0 0.0
2017-Oct-12 20:29N 53°34' E 008°32'0 0.0
2017-Oct-12 19:59N 53°34' E 008°32'0 0.0
2017-Oct-12 19:29N 53°34' E 008°32'0 0.0
2017-Oct-12 18:59N 53°34' E 008°32'0 0.0
2017-Oct-12 18:29N 53°34' E 008°32'0 0.0
2017-Oct-12 17:56N 53°34' E 008°32'0 0.0
2017-Oct-12 17:29N 53°34' E 008°32'0 0.0
2017-Oct-12 16:59N 53°34' E 008°32'0 0.1
2017-Oct-12 16:30N 53°34' E 008°32'4 7.3
2017-Oct-12 16:00N 53°37' E 008°28'816.5
2017-Oct-12 15:30N 53°43' E 008°18'918.1
2017-Oct-12 15:00N 53°49' E 008°07'8817.4
2017-Oct-12 09:56N 53°37' E 005°40'920.6
2017-Oct-12 09:30N 53°34' E 005°26'1020.7
2017-Oct-12 09:00N 53°31' E 005°09'1020.7
2017-Oct-12 08:30N 53°27' E 004°53'1019.4
2017-Oct-12 08:00N 53°20' E 004°42'1019.9
2017-Oct-12 07:30N 53°11' E 004°33'1020.0
2017-Oct-12 07:00N 53°03' E 004°24'1019.7
2017-Oct-12 06:30N 52°55' E 004°16'1019.5
2017-Oct-12 06:00N 52°46' E 004°08'1019.6
2017-Oct-12 05:30N 52°38' E 003°58'1019.3
2017-Oct-12 05:00N 52°31' E 003°47'1119.1
2017-Oct-12 04:25N 52°23' E 003°35'818.7
2017-Oct-12 03:59N 52°15' E 003°30'1418.0
2017-Oct-12 03:11N 52°01' E 003°25'414.4
2017-Oct-12 02:53N 51°57' E 003°24'718.2
2017-Oct-12 02:31N 51°51' E 003°19'815.9
2017-Oct-12 02:00N 51°43' E 003°16'612.7
2017-Oct-12 01:30N 51°38' E 003°11'917.5
2017-Oct-12 01:00N 51°30' E 003°04'611.3
2017-Oct-12 00:30N 51°24' E 003°05'1019.2
2017-Oct-12 00:00N 51°24' E 003°20'918.4
2017-Oct-11 23:30N 51°25' E 003°35'3 6.6
2017-Oct-11 23:00N 51°27' E 003°40'815.5
2017-Oct-11 22:30N 51°21' E 003°48'715.0
2017-Oct-11 22:00N 51°25' E 003°58'612.2
2017-Oct-11 21:30N 51°22' E 004°06'611.8
2017-Oct-11 21:00N 51°21' E 004°16'4 7.6
2017-Oct-11 20:31N 51°17' E 004°15'0 0.1
2017-Oct-11 19:55N 51°17' E 004°15'0 0.0
2017-Oct-11 19:28N 51°17' E 004°15'0 0.0
2017-Oct-11 18:58N 51°17' E 004°15'0 0.0
2017-Oct-11 18:28N 51°17' E 004°15'0 0.0
2017-Oct-11 17:58N 51°17' E 004°15'0 0.0
2017-Oct-11 17:28N 51°17' E 004°15'0 0.0
2017-Oct-11 16:58N 51°17' E 004°15'0 0.0
2017-Oct-10 23:58N 51°17' E 004°15'0 0.0
2017-Oct-10 23:28N 51°17' E 004°15'0 0.0
2017-Oct-10 22:58N 51°17' E 004°15'0 0.0
2017-Oct-10 22:28N 51°17' E 004°15'0 0.0
2017-Oct-10 21:58N 51°17' E 004°15'0 0.0
2017-Oct-10 21:25N 51°17' E 004°15'0 0.0
2017-Oct-10 20:58N 51°17' E 004°15'0 0.0
2017-Oct-10 20:28N 51°17' E 004°15'0 0.0
2017-Oct-10 19:58N 51°17' E 004°15'0 0.0
2017-Oct-10 19:28N 51°17' E 004°15'0 0.7
2017-Oct-10 19:00N 51°18' E 004°16'2 4.9
2017-Oct-10 18:30N 51°20' E 004°16'510.1
2017-Oct-10 18:00N 51°24' E 004°11'611.9
2017-Oct-10 17:31N 51°24' E 004°02'4 8.9
2017-Oct-10 17:01N 51°22' E 003°56'815.4
2017-Oct-10 16:31N 51°23' E 003°43'510.1
2017-Oct-10 16:00N 51°26' E 003°37'4 8.3
2017-Oct-10 15:31N 51°25' E 003°30'1020.6
2017-Oct-10 15:01N 51°25' E 003°14'8 8.3
2017-Oct-10 14:00N 51°31' E 003°05'917.8
2017-Oct-10 13:30N 51°39' E 003°12'815.4
2017-Oct-10 13:00N 51°45' E 003°18'3 0.8
2017-Oct-10 09:16N 51°48' E 003°21'0 0.1
2017-Oct-10 08:31N 51°48' E 003°21'0 0.0
2017-Oct-10 08:29N 51°48' E 003°21'0 0.0
2017-Oct-10 07:52N 51°48' E 003°21'0 0.0
2017-Oct-10 07:19N 51°48' E 003°21'0 0.0
2017-Oct-10 06:34N 51°48' E 003°21'0 0.0
2017-Oct-10 06:29N 51°48' E 003°21'0 0.0
2017-Oct-10 05:40N 51°48' E 003°21'0 0.0
2017-Oct-10 05:28N 51°48' E 003°21'0 0.0
2017-Oct-10 04:58N 51°48' E 003°21'0 0.0
2017-Oct-10 04:19N 51°48' E 003°21'0 0.1
2017-Oct-10 03:55N 51°48' E 003°21'0 0.0
2017-Oct-10 03:28N 51°48' E 003°21'0 0.1
2017-Oct-10 02:58N 51°48' E 003°21'0 0.1
2017-Oct-10 02:28N 51°47' E 003°21'1 3.0
2017-Oct-10 01:59N 51°47' E 003°18'4 9.2
2017-Oct-10 01:30N 51°52' E 003°18'612.4
2017-Oct-10 01:00N 51°58' E 003°20'611.4
2017-Oct-10 00:29N 52°02' E 003°26'713.4
2017-Oct-09 23:59N 52°03' E 003°37'613.6
2017-Oct-09 23:30N 52°02' E 003°47'5 9.0
2017-Oct-09 23:00N 52°02' E 003°54'612.2
2017-Oct-09 22:30N 51°59' E 004°04'2 3.2
2017-Oct-09 22:01N 51°58' E 004°04'0 0.9
2017-Oct-09 21:29N 51°58' E 004°04'0 0.0
2017-Oct-09 20:59N 51°58' E 004°04'0 0.0
2017-Oct-09 20:29N 51°58' E 004°04'0 0.0
2017-Oct-09 19:59N 51°58' E 004°04'0 0.0
2017-Oct-09 19:29N 51°58' E 004°04'0 0.0
2017-Oct-09 18:59N 51°58' E 004°04'0 0.0
2017-Oct-09 18:29N 51°58' E 004°04'0 0.0
2017-Oct-09 17:59N 51°58' E 004°04'0 0.0
2017-Oct-09 17:29N 51°58' E 004°04'0 0.0
2017-Oct-09 16:59N 51°58' E 004°04'0 0.0
2017-Oct-09 16:29N 51°58' E 004°04'0 0.0
2017-Oct-09 15:59N 51°58' E 004°04'0 0.0
2017-Oct-09 15:29N 51°58' E 004°04'0 0.0
2017-Oct-09 14:59N 51°58' E 004°04'0 0.0
2017-Oct-09 14:29N 51°58' E 004°04'0 0.0
2017-Oct-09 13:59N 51°58' E 004°04'0 0.0
2017-Oct-09 13:29N 51°58' E 004°04'0 0.0
2017-Oct-09 12:59N 51°58' E 004°04'0 0.0
2017-Oct-09 12:29N 51°58' E 004°04'0 0.0
2017-Oct-09 11:59N 51°58' E 004°04'0 0.0
2017-Oct-09 11:29N 51°58' E 004°04'0 0.0
2017-Oct-09 10:59N 51°58' E 004°04'0 0.0
2017-Oct-09 10:29N 51°58' E 004°04'0 0.0
2017-Oct-09 09:59N 51°58' E 004°04'0 0.0
2017-Oct-09 09:29N 51°58' E 004°04'0 0.0
2017-Oct-09 08:56N 51°58' E 004°04'0 0.0
2017-Oct-09 08:29N 51°58' E 004°04'1 1.1
2017-Oct-09 08:00N 51°58' E 004°04'3 5.1
2017-Oct-09 07:30N 51°60' E 004°02'612.5
2017-Oct-09 07:00N 52°00' E 003°51'3 6.1
2017-Oct-09 06:30N 51°59' E 003°47'611.3
2017-Oct-09 05:59N 51°57' E 003°38'713.9
2017-Oct-09 05:30N 51°55' E 003°27'2 1.6
2017-Oct-09 04:30N 51°54' E 003°26'0 0.0
2017-Oct-09 03:42N 51°54' E 003°26'0 0.0
2017-Oct-09 03:30N 51°54' E 003°26'0 0.1
2017-Oct-09 00:33N 51°54' E 003°26'0 0.0
2017-Oct-09 00:15N 51°54' E 003°25'0 0.0
2017-Oct-09 00:00N 51°54' E 003°25'0 0.0
2017-Oct-08 23:27N 51°54' E 003°25'0 0.0
2017-Oct-08 23:00N 51°54' E 003°25'0 0.0
2017-Oct-08 22:27N 51°54' E 003°25'0 0.0
2017-Oct-08 21:51N 51°54' E 003°25'0 0.0
2017-Oct-08 21:24N 51°54' E 003°25'0 0.1
2017-Oct-08 19:21N 51°54' E 003°26'0 0.0
2017-Oct-07 07:00N 51°54' E 003°26'0 0.0
2017-Oct-07 06:18N 51°54' E 003°26'1 1.7
2017-Oct-07 05:59N 51°54' E 003°25'3110.3
2017-Oct-07 03:01N 51°52' E 002°36'311.0
2017-Oct-07 02:47N 51°52' E 002°32'911.4
2017-Oct-07 01:59N 51°53' E 002°17'611.8
2017-Oct-07 01:31N 51°52' E 002°08'612.0
2017-Oct-07 01:00N 51°50' E 001°59'611.2
2017-Oct-07 00:31N 51°48' E 001°50'510.6
2017-Oct-07 00:00N 51°50' E 001°42'4 8.5
2017-Oct-06 23:30N 51°52' E 001°36'611.1
2017-Oct-06 23:01N 51°56' E 001°31'  

Dump ship's entire track history